UES weather

Waukesha County Airport
Waukesha, Wisconsin, United States

Public forecast

Using degrees Fahrenheit for public forecast. Weather courtesy of forecast.io.

Current aviation weather report (METAR) for Waukesha County Airport

Retrieved 2020/04/02 04:55 UTC (1 hour ago):

KUES 020455Z AUTO 00000KT 10SM CLR 00/00 A3014 RMK AO2

Aviation forecast (TAF) for Waukesha County Airport

Retrieved 2020-04-02 00:22 UTC (6 hours ago):

TAF KUES 012320Z 0200/0224 09005KT P6SM FEW030 FM020200 VRB04KT P6SM SCT070 FM021700 13007KT P6SM SCT050 SCT250